Terminal Aerodrome Forecast
Issued by NWS Houston/Galveston, TX

Home | Current Version | Previous Version | Text Only | Print | Product List | Glossary On
Versions: 1 2 3 4 5 6 7 8 9 10 11 12 13 14 15 16 17 18 19 20 21 22 23 24 25 26 27 28 29 30 31 32 33 34 35 36 37 38 39
782
FTUS44 KHGX 221737 CCA
TAFGLS
TAF COR
KGLS 221737Z 2218/2318 VRB05KT P6SM VCTS SCT025CB
     FM222100 18010KT P6SM VCSH SCT020
     FM230100 18008KT P6SM SCT020
     FM230900 20011KT P6SM VCSH BKN025
      TEMPO 2310/2313 5SM RA BKN025
     FM231600 21009KT P6SM VCSH SCT025=

USA.gov is the U.S. government's official web portal to all federal, state and local government web resources and services.